createdAt,value
2018-03-20T00:17:30.451Z,36.70
2018-03-20T00:19:58.719Z,41.63
2018-03-20T00:22:26.987Z,43.93
2018-03-20T00:24:55.306Z,43.70
2018-03-20T00:27:23.625Z,42.30
2018-03-20T00:29:51.850Z,46.13
2018-03-20T00:32:20.218Z,34.73
2018-03-20T00:34:48.487Z,40.37
2018-03-20T00:37:16.733Z,41.07
2018-03-20T00:39:45.030Z,45.90
2018-03-20T01:00:16.639Z,46.40
2018-03-20T01:02:45.127Z,57.30
2018-03-20T01:23:15.787Z,57.50
2018-03-20T01:25:44.106Z,50.00
2018-03-20T01:28:13.161Z,63.17
2018-03-20T01:30:41.461Z,50.20
2018-03-20T01:33:09.920Z,63.33
2018-03-20T01:53:43.004Z,43.13
2018-03-20T01:56:11.448Z,56.50
2018-03-20T01:58:39.786Z,62.20
2018-03-20T02:01:08.076Z,59.30
2018-03-20T02:03:36.584Z,56.53
2018-03-20T02:06:05.132Z,56.77
2018-03-20T02:08:33.424Z,58.13
2018-03-20T02:11:01.732Z,62.33
2018-03-20T02:13:30.036Z,57.60
2018-03-20T02:15:58.296Z,56.53
2018-03-20T02:18:26.772Z,68.10
2018-03-20T02:20:55.080Z,64.73
2018-03-20T02:23:24.123Z,65.57
2018-03-20T02:25:52.424Z,61.17
2018-03-20T02:28:20.723Z,59.10
2018-03-20T02:30:48.968Z,63.33
2018-03-20T02:33:17.446Z,49.80
2018-03-20T02:35:45.728Z,65.97
2018-03-20T02:56:15.354Z,65.80
2018-03-20T02:58:43.644Z,64.93
2018-03-20T03:01:11.952Z,67.93
2018-03-20T03:03:40.459Z,47.20
2018-03-20T03:06:09.471Z,64.00
2018-03-20T03:08:37.732Z,58.43
2018-03-20T03:11:06.808Z,66.60
2018-03-20T03:13:35.054Z,66.47
2018-03-20T03:16:03.332Z,67.87
2018-03-20T03:18:31.676Z,63.73
2018-03-20T03:20:59.914Z,66.03
2018-03-20T03:23:28.236Z,65.77
2018-03-20T03:25:57.348Z,65.63
2018-03-20T03:28:26.386Z,69.27
2018-03-20T03:30:54.624Z,62.87
2018-03-20T03:33:23.216Z,65.33
2018-03-20T03:35:51.538Z,62.83
2018-03-20T03:38:19.836Z,63.37
2018-03-20T03:40:48.174Z,69.20
2018-03-20T03:43:16.439Z,58.83
2018-03-20T03:45:44.726Z,66.03
2018-03-20T04:06:15.870Z,60.13
2018-03-20T04:08:44.135Z,55.70
2018-03-20T04:11:12.536Z,59.23
2018-03-20T04:13:41.787Z,58.67
2018-03-20T04:16:10.095Z,62.70
2018-03-20T04:18:38.372Z,57.30
2018-03-20T04:21:06.672Z,54.67
2018-03-20T04:23:35.755Z,57.63
2018-03-20T04:26:04.072Z,57.83
2018-03-20T04:28:33.443Z,54.93
2018-03-20T04:49:04.620Z,50.17
2018-03-20T04:51:33.287Z,52.77
2018-03-20T05:12:07.567Z,50.93
2018-03-20T05:14:36.836Z,56.80
2018-03-20T05:17:05.145Z,51.17
2018-03-20T05:19:43.389Z,52.47
2018-03-20T05:22:30.482Z,50.20
2018-03-20T05:24:59.778Z,46.10
2018-03-20T05:27:28.856Z,48.13
2018-03-20T05:29:57.904Z,46.93
2018-03-20T05:32:26.260Z,47.23
2018-03-20T05:34:55.296Z,48.60
2018-03-20T05:37:23.605Z,47.83
2018-03-20T05:39:52.024Z,50.17
2018-03-20T05:42:21.066Z,48.20
2018-03-20T05:44:49.308Z,47.47
2018-03-20T05:47:32.681Z,45.77
2018-03-20T05:50:15.809Z,41.70
2018-03-20T05:52:44.925Z,47.70
2018-03-20T05:55:13.207Z,48.23
2018-03-20T05:57:41.514Z,46.93
2018-03-20T06:18:11.711Z,39.67
2018-03-20T06:20:40.008Z,42.53
2018-03-20T06:41:12.584Z,39.70
2018-03-20T06:43:40.893Z,38.67
2018-03-20T06:46:09.126Z,39.17
2018-03-20T06:48:37.428Z,37.07
2018-03-20T06:51:05.720Z,33.13
2018-03-20T06:53:33.960Z,30.30
2018-03-20T06:56:02.316Z,35.63
2018-03-20T06:58:31.353Z,38.70
2018-03-20T07:00:59.640Z,28.67
2018-03-20T07:03:28.130Z,37.63
2018-03-20T07:05:56.374Z,28.60
2018-03-20T07:08:24.856Z,34.27
2018-03-20T07:10:54.132Z,23.73
2018-03-20T07:13:23.211Z,35.53
2018-03-20T07:15:51.447Z,25.40
2018-03-20T07:18:19.740Z,33.97
2018-03-20T07:20:48.037Z,25.13
2018-03-20T07:23:16.312Z,34.37
2018-03-20T07:25:44.908Z,24.47
2018-03-20T07:28:13.220Z,29.90
2018-03-20T07:48:44.001Z,31.23
2018-03-20T07:51:13.045Z,46.13
2018-03-20T07:53:41.296Z,30.33
2018-03-20T07:56:09.641Z,38.47
2018-03-20T07:58:38.744Z,24.13
2018-03-20T08:01:07.807Z,36.27
2018-03-20T08:21:40.512Z,29.57
2018-03-20T08:24:08.792Z,22.63
2018-03-20T08:26:37.069Z,26.40
2018-03-20T08:29:05.335Z,22.17
2018-03-20T08:31:33.613Z,29.37
2018-03-20T08:52:04.388Z,31.83
2018-03-20T08:54:33.440Z,29.97
2018-03-20T09:15:08.147Z,25.83
2018-03-20T09:17:36.459Z,19.80
2018-03-20T09:20:05.484Z,27.33
2018-03-20T09:22:33.788Z,19.03
2018-03-20T09:43:06.396Z,27.43
2018-03-20T09:45:34.708Z,23.63
2018-03-20T09:48:03.744Z,26.30
2018-03-20T09:50:32.011Z,22.10
2018-03-20T09:53:00.291Z,27.33
2018-03-20T10:13:31.375Z,24.20
2018-03-20T10:15:59.694Z,25.93
2018-03-20T10:18:28.732Z,23.90
2018-03-20T10:20:56.975Z,23.87
2018-03-20T10:41:29.401Z,26.60
2018-03-20T10:43:58.378Z,23.87
2018-03-20T10:46:26.682Z,28.60
2018-03-20T10:48:55.821Z,24.87
2018-03-20T10:51:24.069Z,26.87
2018-03-20T10:53:52.303Z,26.70
2018-03-20T10:56:21.359Z,24.83
2018-03-20T10:58:49.666Z,24.03
2018-03-20T11:01:23.959Z,21.23
2018-03-20T11:03:52.294Z,22.87
2018-03-20T11:24:23.881Z,21.60
2018-03-20T11:26:52.970Z,22.50
2018-03-20T11:29:22.015Z,21.77
2018-03-20T11:31:50.390Z,21.30
2018-03-20T11:34:18.707Z,20.07
2018-03-20T11:36:47.024Z,22.57
2018-03-20T11:39:16.078Z,25.20
2018-03-20T11:59:47.823Z,30.33
2018-03-20T12:02:16.369Z,17.80
2018-03-20T12:04:44.659Z,25.10
2018-03-20T12:07:12.957Z,23.73
2018-03-20T12:27:44.224Z,22.33
2018-03-20T12:48:15.759Z,20.33
2018-03-20T12:50:44.307Z,23.07
2018-03-20T12:53:12.559Z,21.07
2018-03-20T12:55:41.612Z,20.67
2018-03-20T12:58:10.172Z,19.83
2018-03-20T13:00:38.456Z,22.77
2018-03-20T13:03:06.773Z,23.30
2018-03-20T13:05:35.257Z,21.60
2018-03-20T13:08:03.520Z,21.50
2018-03-20T13:10:31.755Z,20.80
2018-03-20T13:31:01.771Z,20.97
2018-03-20T13:33:30.048Z,22.43
2018-03-20T13:35:58.344Z,22.53
2018-03-20T13:38:26.803Z,22.83
2018-03-20T13:40:55.063Z,26.00
2018-03-20T13:43:23.339Z,23.97
2018-03-20T13:45:51.682Z,22.37
2018-03-20T14:06:23.939Z,22.17
2018-03-20T14:08:52.624Z,21.37
2018-03-20T14:11:20.902Z,22.30
2018-03-20T14:13:49.243Z,23.50
2018-03-20T14:16:17.568Z,22.73
2018-03-20T14:18:45.819Z,21.30
2018-03-20T14:21:14.087Z,21.63
2018-03-20T14:23:42.488Z,21.73
2018-03-20T14:26:10.789Z,22.40
2018-03-20T14:28:39.074Z,20.83
2018-03-20T14:31:07.327Z,21.97
2018-03-20T14:33:35.567Z,22.10
2018-03-20T14:36:03.876Z,21.03
2018-03-20T14:38:32.151Z,23.97
2018-03-20T14:41:00.465Z,25.33
2018-03-20T14:43:28.762Z,25.33
2018-03-20T14:45:57.244Z,18.80
2018-03-20T14:48:25.561Z,20.80
2018-03-20T14:50:54.656Z,17.83
2018-03-20T15:11:27.136Z,19.73
2018-03-20T15:13:56.688Z,22.23
2018-03-20T15:16:24.939Z,20.20
2018-03-20T15:18:53.247Z,21.77
2018-03-20T15:21:21.531Z,22.27
2018-03-20T15:23:49.842Z,22.17
2018-03-20T15:26:18.306Z,22.10
2018-03-20T15:46:50.113Z,25.73
2018-03-20T15:49:18.383Z,25.53
2018-03-20T15:51:46.633Z,26.33
2018-03-20T16:12:19.046Z,28.10
2018-03-20T16:32:50.160Z,23.13
2018-03-20T16:35:18.488Z,26.87
2018-03-20T16:55:50.186Z,26.23
2018-03-20T16:58:18.829Z,26.20
2018-03-20T17:00:47.823Z,24.57
2018-03-20T17:03:16.872Z,30.33
2018-03-20T17:05:45.130Z,26.57
2018-03-20T17:08:13.370Z,26.93
2018-03-20T17:28:47.172Z,28.17
2018-03-20T17:31:15.443Z,29.90
2018-03-20T17:51:48.824Z,29.70
2018-03-20T17:54:17.128Z,28.20
2018-03-20T17:56:45.375Z,32.37
2018-03-20T17:59:13.706Z,29.90
2018-03-20T18:01:41.942Z,27.17
2018-03-20T18:04:10.256Z,26.03
2018-03-20T18:06:38.760Z,26.87
2018-03-20T18:27:09.080Z,27.00
2018-03-20T18:29:37.442Z,29.23
2018-03-20T18:32:06.582Z,32.43
2018-03-20T18:52:37.829Z,29.00
2018-03-20T18:55:06.054Z,25.57
2018-03-20T19:15:40.823Z,28.53
2018-03-20T19:18:09.864Z,25.10
2018-03-20T19:20:38.127Z,18.67
2018-03-20T19:41:07.704Z,21.63
2018-03-20T19:43:36.785Z,24.20
2018-03-20T19:46:05.022Z,22.23
2018-03-20T19:48:33.336Z,22.37
2018-03-20T19:51:01.624Z,22.83
2018-03-20T19:53:29.955Z,19.80
2018-03-20T19:55:59.228Z,25.53
2018-03-20T19:58:27.539Z,23.07
2018-03-20T20:00:56.593Z,20.30
2018-03-20T20:03:25.112Z,21.40
2018-03-20T20:05:54.165Z,21.70
2018-03-20T20:08:22.436Z,21.70
2018-03-20T20:10:50.739Z,20.13
2018-03-20T20:13:19.003Z,21.57
2018-03-20T20:15:47.616Z,21.83
2018-03-20T20:36:17.355Z,23.87
2018-03-20T20:38:45.638Z,18.07
2018-03-20T20:41:13.906Z,27.37
2018-03-20T20:43:42.203Z,26.03
2018-03-20T20:46:10.454Z,24.97
2018-03-20T20:48:38.707Z,24.37
2018-03-20T21:09:09.658Z,21.83
2018-03-20T21:11:37.894Z,24.83
2018-03-20T21:32:09.576Z,22.63
2018-03-20T21:34:37.845Z,29.50
2018-03-20T21:37:06.145Z,31.00
2018-03-20T21:39:35.248Z,35.33
2018-03-20T22:00:07.224Z,35.67
2018-03-20T22:02:35.531Z,24.67
2018-03-20T22:05:03.829Z,31.53
2018-03-20T22:07:32.133Z,33.10
2018-03-20T22:10:00.427Z,32.27
2018-03-20T22:30:32.353Z,25.20
2018-03-20T22:33:01.437Z,34.57
2018-03-20T22:53:32.992Z,35.27
2018-03-20T23:14:03.652Z,36.53
2018-03-20T23:34:36.844Z,27.90
2018-03-20T23:37:05.152Z,40.53
2018-03-20T23:39:33.508Z,41.30
